Time;durP1;ratioP1;P1;durP2;ratioP2;P2;SDS_P1;SDS_P2;PMS_P1;PMS_P2;Temp;Humidity;BMP_temperature;BMP_pressure;BME280_temperature;BME280_humidity;BME280_pressure;Samples;Min_cycle;Max_cycle;Signal;HPM_P1;HPM_P2
2023/08/17 00:02:06;;;;;;;3.47;2.75;;;;;;;17.38;82.36;102147.53;6280299;22;20016;-78
2023/08/17 00:04:32;;;;;;;3.72;3.15;;;;;;;17.35;82.48;102143.81;6227368;22;20380;-78
2023/08/17 00:06:59;;;;;;;6.47;3.00;;;;;;;17.34;82.83;102147.69;6280650;22;20402;-77
2023/08/17 00:09:26;;;;;;;6.97;2.95;;;;;;;17.31;83.19;102152.03;6280193;22;20020;-77
2023/08/17 00:11:52;;;;;;;4.15;2.92;;;;;;;17.28;83.48;102146.81;6253141;22;20081;-77
2023/08/17 00:14:22;;;;;;;5.55;3.00;;;;;;;17.25;83.60;102148.47;6279688;22;20071;-78
2023/08/17 00:16:51;;;;;;;4.95;3.00;;;;;;;17.25;83.23;102145.75;6280823;22;20107;-78
2023/08/17 00:19:21;;;;;;;6.25;2.90;;;;;;;17.23;83.72;102139.34;6252983;22;20394;-77
2023/08/17 00:21:48;;;;;;;5.50;2.80;;;;;;;17.20;83.96;102140.97;6280472;22;20022;-77
2023/08/17 00:24:14;;;;;;;4.18;2.80;;;;;;;17.19;83.78;102138.78;6280306;22;20446;-77
2023/08/17 00:26:41;;;;;;;3.83;3.10;;;;;;;17.14;83.82;102137.44;6278740;22;20031;-75
2023/08/17 00:29:08;;;;;;;6.65;2.85;;;;;;;17.12;84.23;102137.13;6253429;22;20075;-76
2023/08/17 00:31:35;;;;;;;4.13;3.47;;;;;;;17.10;84.31;102141.47;6252315;22;20532;-77
2023/08/17 00:34:02;;;;;;;6.25;3.25;;;;;;;17.09;84.69;102137.28;6281658;22;20016;-76
2023/08/17 00:36:29;;;;;;;4.53;2.67;;;;;;;17.05;85.12;102136.69;6253321;22;20040;-77
2023/08/17 00:38:56;;;;;;;3.47;2.65;;;;;;;17.04;84.94;102140.59;6253375;22;20442;-76
2023/08/17 00:41:22;;;;;;;4.28;2.85;;;;;;;17.03;84.80;102136.41;6280697;22;20454;-76
2023/08/17 00:43:49;;;;;;;6.85;3.42;;;;;;;16.98;84.71;102135.81;6254288;22;20016;-76
2023/08/17 00:46:17;;;;;;;5.72;3.20;;;;;;;16.97;84.87;102139.69;6254371;22;20024;-76
2023/08/17 00:48:43;;;;;;;3.80;2.60;;;;;;;16.95;84.67;102127.88;6281450;22;20020;-76
2023/08/17 00:51:10;;;;;;;3.08;2.60;;;;;;;16.94;84.72;102131.78;6254382;22;20016;-79
2023/08/17 00:53:37;;;;;;;3.78;2.67;;;;;;;16.92;85.00;102129.53;6253227;22;20035;-77
2023/08/17 00:56:04;;;;;;;4.07;2.78;;;;;;;16.91;85.16;102128.03;6281396;22;20078;-77
2023/08/17 00:58:32;;;;;;;10.00;2.65;;;;;;;16.90;85.16;102139.25;6280616;22;20764;-77
2023/08/17 01:00:58;;;;;;;4.07;3.10;;;;;;;16.88;85.26;102131.63;6254105;22;20103;-76
2023/08/17 01:03:28;;;;;;;7.85;3.10;;;;;;;16.86;85.32;102131.31;6253167;22;20021;-77
2023/08/17 01:05:56;;;;;;;8.45;3.00;;;;;;;16.87;84.86;102135.50;6254268;22;20024;-78
2023/08/17 01:08:25;;;;;;;8.02;2.88;;;;;;;16.85;85.20;102132.50;6280254;22;20012;-78
2023/08/17 01:11:15;;;;;;;5.15;2.70;;;;;;;16.83;84.74;102142.22;6281284;22;20013;-78
2023/08/17 01:13:48;;;;;;;3.38;2.47;;;;;;;16.80;85.33;102129.69;6253956;22;20083;-78
2023/08/17 01:16:22;;;;;;;4.38;2.67;;;;;;;16.79;85.30;102138.97;6254076;22;20052;-78
2023/08/17 01:18:51;;;;;;;5.80;2.80;;;;;;;16.76;85.74;102135.22;6281660;22;20012;-78
2023/08/17 01:21:23;;;;;;;3.65;2.80;;;;;;;16.75;85.44;102136.44;6281174;22;20012;-78
2023/08/17 01:23:50;;;;;;;;;;;;;;;16.75;84.45;102127.59;6254064;22;20088;-78
2023/08/17 01:26:17;;;;;;;3.53;2.22;;;;;;;16.72;84.88;102123.88;6228562;22;19923;-78
2023/08/17 01:28:46;;;;;;;3.17;2.28;;;;;;;16.70;85.29;102120.88;6254456;22;20446;-78
2023/08/17 01:31:23;;;;;;;4.72;2.45;;;;;;;16.69;85.03;102116.69;6228506;22;20039;-78
2023/08/17 01:33:56;;;;;;;3.20;2.90;;;;;;;16.65;85.49;102114.16;6254057;22;20446;-77
2023/08/17 01:36:29;;;;;;;3.08;2.78;;;;;;;16.63;85.39;102118.47;6253366;22;20484;-77
2023/08/17 01:38:57;;;;;;;3.40;2.78;;;;;;;16.61;85.78;102123.53;6253525;22;20046;-77
2023/08/17 01:41:25;;;;;;;3.00;2.70;;;;;;;16.61;85.67;102115.47;6253911;22;20012;-77
2023/08/17 01:43:53;;;;;;;3.10;2.33;;;;;;;16.58;85.74;102119.81;6228354;22;20328;-77
2023/08/17 01:46:21;;;;;;;4.15;2.85;;;;;;;16.58;85.89;102124.44;6280543;22;20032;-79
2023/08/17 01:48:47;;;;;;;9.77;3.03;;;;;;;16.57;86.17;102128.31;6253950;22;20417;-76
2023/08/17 01:51:19;;;;;;;3.17;2.60;;;;;;;16.58;85.47;102127.13;6253845;22;20288;-78
2023/08/17 01:53:47;;;;;;;4.18;3.00;;;;;;;16.56;86.14;102116.06;6253794;22;20016;-77
2023/08/17 01:56:14;;;;;;;5.95;2.85;;;;;;;16.53;86.22;102119.66;6253571;22;20027;-76
2023/08/17 01:58:43;;;;;;;8.38;2.60;;;;;;;16.50;86.53;102123.22;6253397;22;20103;-77
2023/08/17 02:01:10;;;;;;;4.78;3.25;;;;;;;16.50;86.70;102117.84;6254010;22;20095;-75
2023/08/17 02:03:37;;;;;;;7.65;2.60;;;;;;;16.48;86.42;102109.50;6227643;22;20027;-77
2023/08/17 02:06:03;;;;;;;3.40;2.67;;;;;;;16.47;86.69;102116.81;6253177;22;20059;-77
2023/08/17 02:08:30;;;;;;;3.67;3.05;;;;;;;16.44;86.98;102115.00;6280624;22;20016;-77
2023/08/17 02:10:56;;;;;;;6.18;2.92;;;;;;;16.40;86.99;102119.78;6281266;22;20079;-77
2023/08/17 02:13:23;;;;;;;5.60;3.03;;;;;;;16.38;87.18;102111.44;6253251;22;20020;-76
2023/08/17 02:15:51;;;;;;;5.18;3.10;;;;;;;16.36;87.82;102113.06;6253497;22;20106;-77
2023/08/17 02:18:17;;;;;;;9.52;2.90;;;;;;;16.31;87.62;102112.47;6280956;22;20017;-77
2023/08/17 02:20:45;;;;;;;4.80;3.00;;;;;;;16.29;87.49;102120.22;6227955;22;20024;-77
2023/08/17 02:23:11;;;;;;;6.32;3.10;;;;;;;16.28;87.68;102126.78;6254218;22;20016;-78
2023/08/17 02:25:39;;;;;;;5.75;2.83;;;;;;;16.28;87.66;102120.69;6253542;22;20284;-78
2023/08/17 02:28:06;;;;;;;7.60;3.30;;;;;;;16.25;88.17;102122.31;6228297;22;20020;-78
2023/08/17 02:30:32;;;;;;;4.93;3.08;;;;;;;16.25;88.07;102124.25;6253224;22;20020;-77
2023/08/17 02:32:59;;;;;;;4.32;3.50;;;;;;;16.20;88.35;102120.22;6253736;22;20413;-78
2023/08/17 02:35:26;;;;;;;3.60;2.80;;;;;;;16.19;88.49;102118.72;6252280;22;20024;-78
2023/08/17 02:37:53;;;;;;;5.60;3.08;;;;;;;16.20;88.83;102117.53;6228510;22;20051;-78
2023/08/17 02:40:19;;;;;;;8.23;3.13;;;;;;;16.18;88.62;102113.78;6252973;22;20020;-77
2023/08/17 02:42:46;;;;;;;5.30;3.25;;;;;;;16.17;88.94;102109.59;6228374;22;20016;-78
2023/08/17 02:45:14;;;;;;;9.30;3.35;;;;;;;16.18;89.28;102109.16;6253441;22;20063;-78
2023/08/17 02:47:41;;;;;;;4.85;3.17;;;;;;;16.18;88.99;102103.78;6253423;22;20016;-79
2023/08/17 02:50:08;;;;;;;8.98;3.53;;;;;;;16.18;88.88;102100.34;6280874;22;20012;-79
2023/08/17 02:52:35;;;;;;;6.38;3.05;;;;;;;16.16;89.04;102095.41;6227436;22;20516;-79
2023/08/17 02:55:01;;;;;;;3.88;3.00;;;;;;;16.14;88.88;102097.81;6227689;22;20361;-77
2023/08/17 02:57:28;;;;;;;8.65;3.10;;;;;;;16.15;89.28;102098.56;6227845;22;20023;-79
2023/08/17 02:59:54;;;;;;;4.72;3.28;;;;;;;16.13;89.16;102100.94;6254094;22;20087;-78
2023/08/17 03:02:21;;;;;;;5.35;3.05;;;;;;;16.10;89.27;102097.19;6253009;22;20023;-79
2023/08/17 03:04:48;;;;;;;3.70;3.20;;;;;;;16.12;89.49;102102.88;6280278;22;20066;-77
2023/08/17 03:07:14;;;;;;;4.65;3.25;;;;;;;16.11;89.31;102096.00;6253977;22;20042;-76
2023/08/17 03:09:41;;;;;;;3.70;3.03;;;;;;;16.12;89.55;102094.06;6253605;22;20067;-79
2023/08/17 03:12:07;;;;;;;5.88;2.97;;;;;;;16.11;89.57;102101.38;6253704;22;20027;-79
2023/08/17 03:14:34;;;;;;;6.43;3.30;;;;;;;16.10;89.27;102096.44;6253261;22;20516;-79
2023/08/17 03:17:01;;;;;;;6.20;3.33;;;;;;;16.10;89.13;102096.44;6228597;22;20479;-79
2023/08/17 03:19:27;;;;;;;4.03;3.00;;;;;;;16.10;89.02;102099.88;6279773;22;20012;-78
2023/08/17 03:21:54;;;;;;;5.30;2.90;;;;;;;16.10;89.11;102096.44;6253613;22;20039;-79
2023/08/17 03:24:21;;;;;;;3.90;2.60;;;;;;;16.06;89.43;102096.59;6280017;22;20406;-79
2023/08/17 03:26:47;;;;;;;3.30;2.78;;;;;;;16.04;89.09;102090.91;6280718;22;20016;-79
2023/08/17 03:29:14;;;;;;;9.02;3.40;;;;;;;16.03;88.91;102092.09;6281106;22;20023;-78
2023/08/17 03:31:41;;;;;;;6.78;3.60;;;;;;;16.01;89.20;102089.88;6252461;22;20008;-78
2023/08/17 03:34:09;;;;;;;5.15;3.00;;;;;;;16.02;89.04;102087.91;6252630;22;20032;-77
2023/08/17 03:36:35;;;;;;;6.72;3.28;;;;;;;16.01;89.33;102089.88;6252759;22;20457;-77
2023/08/17 03:39:02;;;;;;;3.33;3.00;;;;;;;16.00;89.21;102080.31;6253434;22;20099;-78
2023/08/17 03:41:28;;;;;;;3.60;2.65;;;;;;;15.99;89.16;102094.22;6252572;22;20027;-77
2023/08/17 03:43:55;;;;;;;7.07;2.95;;;;;;;16.00;89.42;102093.00;6280657;22;20013;-77
2023/08/17 03:46:21;;;;;;;7.10;3.15;;;;;;;15.98;89.42;102087.34;6252880;22;20047;-77
2023/08/17 03:48:49;;;;;;;3.38;2.90;;;;;;;15.97;89.28;102089.28;6252380;22;20031;-76
2023/08/17 03:51:16;;;;;;;6.90;3.10;;;;;;;15.96;89.48;102082.41;6253228;22;20543;-77
2023/08/17 03:53:43;;;;;;;7.68;3.28;;;;;;;15.95;89.30;102086.28;6280474;22;20027;-76
2023/08/17 03:56:09;;;;;;;4.15;2.88;;;;;;;15.95;89.55;102085.53;6253009;22;20028;-77
2023/08/17 03:58:36;;;;;;;8.38;3.55;;;;;;;15.93;89.70;102085.97;6252700;22;20024;-77
2023/08/17 04:01:06;;;;;;;7.88;2.75;;;;;;;15.92;89.65;102086.44;6253249;22;20040;-77
2023/08/17 04:03:33;;;;;;;4.22;2.40;;;;;;;15.92;89.53;102078.38;6226346;22;20017;-77
2023/08/17 04:06:09;;;;;;;4.65;2.85;;;;;;;15.92;89.64;102089.88;6252963;22;20056;-77
2023/08/17 04:08:37;;;;;;;7.45;2.60;;;;;;;15.91;89.60;102088.38;6252861;22;20385;-76
2023/08/17 04:11:04;;;;;;;6.57;2.78;;;;;;;15.92;89.70;102089.13;6280792;22;20016;-78
2023/08/17 04:13:32;;;;;;;3.72;2.97;;;;;;;15.91;89.43;102095.69;6252400;22;20483;-78
2023/08/17 04:15:58;;;;;;;7.13;2.72;;;;;;;15.92;89.81;102086.44;6253004;22;20020;-77
2023/08/17 04:18:25;;;;;;;3.85;2.70;;;;;;;15.93;89.34;102091.34;6251736;22;20023;-77
2023/08/17 04:20:52;;;;;;;5.30;2.50;;;;;;;15.94;89.22;102092.09;6252833;22;20454;-77
2023/08/17 04:23:21;;;;;;;3.55;2.38;;;;;;;15.93;89.09;102088.66;6251958;22;20051;-77
2023/08/17 04:25:49;;;;;;;5.15;2.40;;;;;;;15.92;89.24;102089.88;6227565;22;20027;-77
2023/08/17 04:28:15;;;;;;;2.50;2.30;;;;;;;15.92;89.47;102091.81;6253131;22;20044;-78
2023/08/17 04:30:44;;;;;;;4.50;2.03;;;;;;;15.92;90.09;102086.44;6252739;22;20413;-79
2023/08/17 04:33:12;;;;;;;5.53;2.35;;;;;;;15.92;89.63;102089.13;6251770;22;20031;-78
2023/08/17 04:35:39;;;;;;;3.63;2.42;;;;;;;15.92;89.66;102089.88;6279567;22;20013;-79
2023/08/17 04:38:06;;;;;;;11.50;2.80;;;;;;;15.91;89.50;102087.63;6227529;22;20446;-78
2023/08/17 04:40:33;;;;;;;5.53;2.30;;;;;;;15.90;89.37;102089.56;6252398;22;20019;-78
2023/08/17 04:43:00;;;;;;;4.30;2.50;;;;;;;15.90;89.90;102080.75;6252564;22;20024;-78
2023/08/17 04:45:27;;;;;;;2.22;1.95;;;;;;;15.91;89.52;102080.31;6251335;22;20086;-79
2023/08/17 04:47:54;;;;;;;5.97;2.50;;;;;;;15.93;89.75;102088.66;6280358;22;20016;-78
2023/08/17 04:50:21;;;;;;;3.17;1.90;;;;;;;15.96;89.16;102078.97;6251941;22;20536;-78
2023/08/17 04:52:48;;;;;;;2.30;2.10;;;;;;;15.97;89.37;102085.84;6253089;22;20016;-78
2023/08/17 04:55:14;;;;;;;6.05;2.00;;;;;;;15.98;89.37;102084.66;6252550;22;20102;-78
2023/08/17 04:57:42;;;;;;;4.97;2.95;;;;;;;15.98;89.37;102079.28;6252100;22;20099;-78
2023/08/17 05:00:12;;;;;;;5.15;2.10;;;;;;;15.97;89.26;102085.84;6252091;22;20020;-76
2023/08/17 05:02:39;;;;;;;2.75;1.95;;;;;;;15.98;89.50;102082.72;6252011;22;20392;-78
2023/08/17 05:05:09;;;;;;;7.45;2.10;;;;;;;15.99;89.48;102083.47;6253373;22;20040;-78
2023/08/17 05:07:36;;;;;;;2.75;1.90;;;;;;;16.01;88.82;102079.13;6251849;22;20023;-78
2023/08/17 05:10:03;;;;;;;3.08;1.90;;;;;;;16.02;89.04;102071.81;6279850;22;20012;-78
2023/08/17 05:12:32;;;;;;;2.30;1.80;;;;;;;16.05;88.92;102070.16;6251326;22;20024;-77
2023/08/17 05:14:59;;;;;;;8.55;2.10;;;;;;;16.07;89.30;102070.47;6226826;22;20020;-78
2023/08/17 05:17:26;;;;;;;2.72;2.05;;;;;;;16.07;89.39;102071.22;6251692;22;20443;-78
2023/08/17 05:19:55;;;;;;;2.50;1.70;;;;;;;16.08;88.78;102072.72;6253574;22;20020;-78
2023/08/17 05:22:22;;;;;;;2.65;1.63;;;;;;;16.11;89.04;102076.47;6227754;22;20432;-78
2023/08/17 05:24:49;;;;;;;5.80;2.38;;;;;;;16.12;88.98;102072.56;6228815;22;20118;-78
2023/08/17 05:27:17;;;;;;;4.85;2.10;;;;;;;16.13;88.65;102079.44;6281000;22;20103;-79
2023/08/17 05:29:44;;;;;;;2.38;2.00;;;;;;;16.16;88.39;102073.19;6252995;22;20024;-79
2023/08/17 05:32:11;;;;;;;6.18;2.10;;;;;;;16.17;88.67;102078.13;6254325;22;20028;-79
2023/08/17 05:34:38;;;;;;;3.13;2.22;;;;;;;16.22;88.50;102082.16;6253163;22;20103;-79
2023/08/17 05:37:04;;;;;;;5.82;2.15;;;;;;;16.33;88.63;102072.47;6228921;22;20016;-80
2023/08/17 05:39:31;;;;;;;5.60;2.05;;;;;;;16.63;87.50;102083.50;6252790;22;20020;-79
2023/08/17 05:42:00;;;;;;;2.60;2.00;;;;;;;16.82;86.48;102071.56;6253653;22;20024;-78
2023/08/17 05:44:27;;;;;;;5.15;2.10;;;;;;;17.13;85.14;102076.00;6252309;22;20091;-76
2023/08/17 05:46:53;;;;;;;2.55;2.10;;;;;;;17.58;84.22;102080.47;6253864;22;20031;-77
2023/08/17 05:49:20;;;;;;;6.20;2.17;;;;;;;18.58;79.51;102076.41;6253226;22;20024;-76
2023/08/17 05:51:47;;;;;;;3.08;1.73;;;;;;;19.24;75.38;102079.50;6281283;22;20059;-74
2023/08/17 05:54:13;;;;;;;4.90;2.22;;;;;;;19.78;72.69;102087.41;6253726;22;20024;-76
2023/08/17 05:56:44;;;;;;;8.93;2.10;;;;;;;20.42;69.66;102081.81;6253326;22;20103;-76
2023/08/17 05:59:11;;;;;;;3.73;2.20;;;;;;;20.93;67.06;102093.88;6228043;22;20383;-75
2023/08/17 06:01:38;;;;;;;4.25;2.05;;;;;;;20.95;66.31;102086.00;6253192;22;20060;-75
2023/08/17 06:04:05;;;;;;;7.35;2.20;;;;;;;21.28;66.19;102093.66;6281378;22;20489;-75
2023/08/17 06:06:32;;;;;;;6.18;2.28;;;;;;;21.32;65.16;102096.16;6279944;22;20016;-76
2023/08/17 06:08:59;;;;;;;3.72;2.00;;;;;;;20.78;65.77;102107.53;6281059;22;20023;-75
2023/08/17 06:11:25;;;;;;;7.03;1.98;;;;;;;19.97;68.47;102102.91;6280442;22;20020;-77
2023/08/17 06:13:52;;;;;;;6.60;2.17;;;;;;;19.48;70.96;102111.03;6280566;22;20018;-78
2023/08/17 06:16:18;;;;;;;5.55;2.47;;;;;;;19.24;72.05;102111.13;6253579;22;20012;-76
2023/08/17 06:18:45;;;;;;;6.05;2.60;;;;;;;18.87;73.46;102110.78;6253612;22;20394;-80
2023/08/17 06:21:12;;;;;;;6.47;2.20;;;;;;;18.57;74.82;102115.34;6253326;22;20447;-78
2023/08/17 06:23:38;;;;;;;6.80;2.17;;;;;;;18.42;76.30;102111.88;6253251;22;20016;-77
2023/08/17 06:26:05;;;;;;;4.45;2.00;;;;;;;18.27;77.13;102114.53;6280830;22;20474;-77
2023/08/17 06:28:32;;;;;;;7.82;2.25;;;;;;;18.18;77.46;102115.34;6279650;22;20047;-77
2023/08/17 06:30:58;;;;;;;5.53;2.35;;;;;;;18.09;78.65;102115.38;6280171;22;20054;-75
2023/08/17 06:33:25;;;;;;;4.63;2.45;;;;;;;18.09;78.28;102122.72;6280128;22;20019;-76
2023/08/17 06:35:52;;;;;;;5.82;2.50;;;;;;;18.13;78.94;102112.53;6280946;22;20013;-75
2023/08/17 06:38:18;;;;;;;4.85;2.40;;;;;;;18.07;78.79;102111.66;6280191;22;20016;-78
2023/08/17 06:40:45;;;;;;;5.60;2.90;;;;;;;18.00;79.71;102112.75;6280867;22;20090;-78
2023/08/17 06:43:12;;;;;;;2.88;2.20;;;;;;;17.98;80.09;102121.31;6253004;22;20066;-77
2023/08/17 06:45:38;;;;;;;10.68;2.80;;;;;;;17.97;79.47;102119.81;6280198;22;20434;-77
2023/08/17 06:48:06;;;;;;;4.20;2.50;;;;;;;17.93;79.86;102115.78;6253587;22;20402;-75
2023/08/17 06:50:32;;;;;;;6.30;2.55;;;;;;;17.90;79.78;102117.44;6280128;22;20099;-75
2023/08/17 06:53:02;;;;;;;8.45;2.50;;;;;;;17.95;80.00;102113.38;6281394;22;20091;-75
2023/08/17 06:55:28;;;;;;;13.43;2.60;;;;;;;17.93;79.43;102111.16;6279792;22;20069;-75
2023/08/17 06:57:55;;;;;;;4.03;2.33;;;;;;;17.96;79.64;102112.19;6280043;22;20012;-75
2023/08/17 07:00:21;;;;;;;5.15;2.42;;;;;;;17.99;79.61;102119.34;6280211;22;20082;-75
2023/08/17 07:02:51;;;;;;;4.72;2.40;;;;;;;17.99;80.19;102117.38;6280125;22;20047;-75
2023/08/17 07:05:22;;;;;;;6.03;2.20;;;;;;;18.00;79.43;102123.50;6280222;22;20012;-75
2023/08/17 07:07:49;;;;;;;3.90;2.30;;;;;;;18.01;79.87;102119.63;6253513;22;20039;-75
2023/08/17 07:10:15;;;;;;;2.03;1.83;;;;;;;18.04;79.76;102121.41;6280867;22;20028;-75
2023/08/17 07:12:42;;;;;;;3.63;2.25;;;;;;;18.06;80.04;102120.94;6279547;22;20016;-75
2023/08/17 07:15:10;;;;;;;4.60;2.10;;;;;;;18.07;79.51;102117.78;6280762;22;20078;-75
2023/08/17 07:17:37;;;;;;;4.55;2.08;;;;;;;18.07;79.76;102122.44;6279942;22;20461;-75
2023/08/17 07:20:07;;;;;;;6.90;2.03;;;;;;;18.11;79.25;102123.75;6280740;22;20046;-75
2023/08/17 07:22:43;;;;;;;5.60;2.10;;;;;;;18.19;79.16;102122.22;6280361;22;20030;-75
2023/08/17 07:25:09;;;;;;;6.03;2.30;;;;;;;18.25;78.71;102125.03;6280262;22;20066;-76
2023/08/17 07:27:36;;;;;;;3.58;2.25;;;;;;;18.32;78.79;102116.59;6279444;22;20071;-76
2023/08/17 07:30:03;;;;;;;3.67;2.20;;;;;;;18.40;77.88;102123.09;6280950;22;20021;-76
2023/08/17 07:32:29;;;;;;;3.05;2.03;;;;;;;18.52;77.68;102124.09;6252630;22;20918;-76
2023/08/17 07:34:56;;;;;;;5.28;2.63;;;;;;;18.73;77.90;102122.31;6253552;22;20075;-77
2023/08/17 07:37:23;;;;;;;4.25;2.20;;;;;;;18.90;76.88;102132.16;6279415;22;20051;-82
2023/08/17 07:39:50;;;;;;;8.57;2.60;;;;;;;19.12;75.96;102128.38;6280078;22;20432;-78
2023/08/17 07:42:17;;;;;;;4.55;2.22;;;;;;;19.43;73.87;102123.25;6253144;22;20438;-76
2023/08/17 07:44:44;;;;;;;9.00;2.38;;;;;;;19.74;73.57;102125.44;6253663;22;20016;-78
2023/08/17 07:47:10;;;;;;;5.18;2.30;;;;;;;19.88;72.77;102119.25;6280470;22;20022;-78
2023/08/17 07:49:37;;;;;;;4.75;2.25;;;;;;;19.97;71.73;102126.50;6252692;22;20016;-77
2023/08/17 07:52:04;;;;;;;6.00;2.20;;;;;;;20.00;71.81;102122.81;6280547;22;20020;-77
2023/08/17 07:54:30;;;;;;;4.72;2.10;;;;;;;20.24;71.57;102119.94;6278820;22;20099;-77
2023/08/17 07:56:57;;;;;;;4.47;2.17;;;;;;;20.44;70.12;102113.78;6280475;22;20043;-78
2023/08/17 07:59:23;;;;;;;2.75;2.30;;;;;;;20.41;70.53;102126.31;6252222;22;20457;-76
2023/08/17 08:01:50;;;;;;;3.85;2.15;;;;;;;20.50;69.63;102125.41;6280710;22;20017;-76
2023/08/17 08:04:16;;;;;;;4.13;2.03;;;;;;;20.56;69.20;102137.03;6280308;22;20013;-76
2023/08/17 08:06:43;;;;;;;4.32;2.30;;;;;;;20.78;69.15;102129.19;6253368;22;20016;-77
2023/08/17 08:09:10;;;;;;;5.90;2.05;;;;;;;20.87;69.22;102130.97;6279775;22;20096;-79
2023/08/17 08:11:36;;;;;;;3.13;1.85;;;;;;;20.97;67.75;102126.88;6279846;22;20020;-77
2023/08/17 08:14:04;;;;;;;6.72;2.30;;;;;;;21.17;67.29;102117.94;6280707;22;20030;-77
2023/08/17 08:16:30;;;;;;;5.97;2.50;;;;;;;21.29;67.32;102124.94;6252247;22;20450;-78
2023/08/17 08:18:57;;;;;;;3.63;1.90;;;;;;;21.29;67.92;102120.28;6253672;22;20493;-78
2023/08/17 08:21:24;;;;;;;6.13;2.60;;;;;;;21.29;66.83;102130.38;6252563;22;20442;-78
2023/08/17 08:23:51;;;;;;;5.32;2.17;;;;;;;21.10;67.13;102137.34;6252737;22;20039;-79
2023/08/17 08:26:17;;;;;;;3.38;1.90;;;;;;;20.92;68.17;102132.97;6279770;22;20020;-78
2023/08/17 08:28:44;;;;;;;4.13;2.10;;;;;;;20.77;68.39;102130.41;6280164;22;20047;-78
2023/08/17 08:31:10;;;;;;;3.35;2.00;;;;;;;20.79;68.32;102125.25;6280588;22;20102;-74
2023/08/17 08:33:37;;;;;;;5.50;2.15;;;;;;;20.69;69.29;102128.59;6279563;22;20019;-76
2023/08/17 08:36:05;;;;;;;6.25;2.13;;;;;;;20.62;69.75;102127.03;6279878;22;20481;-77
2023/08/17 08:38:32;;;;;;;4.15;2.30;;;;;;;20.54;70.00;102128.66;6278795;22;20016;-77
2023/08/17 08:40:59;;;;;;;6.55;2.35;;;;;;;20.45;69.45;102134.94;6280291;22;20020;-76
2023/08/17 08:43:25;;;;;;;4.22;2.30;;;;;;;20.42;69.87;102125.09;6279221;22;20017;-77
2023/08/17 08:45:53;;;;;;;3.70;2.10;;;;;;;20.51;70.33;102127.66;6279669;22;20047;-77
2023/08/17 08:48:22;;;;;;;3.83;2.17;;;;;;;20.49;69.90;102127.38;6279130;22;20016;-77
2023/08/17 08:50:50;;;;;;;4.75;2.15;;;;;;;20.52;69.77;102125.69;6279871;22;20558;-78
2023/08/17 08:53:21;;;;;;;2.22;1.83;;;;;;;20.62;70.07;102110.81;6279674;22;20016;-77
2023/08/17 08:55:55;;;;;;;4.82;2.40;;;;;;;20.71;70.02;102120.72;6223332;22;20031;-78
2023/08/17 08:58:22;;;;;;;4.68;2.22;;;;;;;20.71;69.01;102123.44;6250293;22;20433;-78
2023/08/17 09:00:48;;;;;;;4.40;2.03;;;;;;;20.67;69.48;102118.22;6250415;22;20016;-77
2023/08/17 09:03:17;;;;;;;5.25;2.35;;;;;;;20.58;69.00;102119.13;6249079;22;20016;-78
2023/08/17 09:05:47;;;;;;;13.43;2.40;;;;;;;20.46;69.22;102111.34;6250789;22;20024;-75
2023/08/17 09:08:15;;;;;;;4.80;2.00;;;;;;;20.54;70.16;102112.44;6248541;22;20048;-77
2023/08/17 09:10:43;;;;;;;9.18;2.30;;;;;;;20.67;69.63;102112.09;6250732;22;20017;-76
2023/08/17 09:13:10;;;;;;;4.93;2.20;;;;;;;20.85;69.00;102104.38;6249078;22;20413;-76
2023/08/17 09:15:36;;;;;;;5.75;2.58;;;;;;;20.91;68.93;102110.59;6250040;22;20442;-77
2023/08/17 09:18:06;;;;;;;4.32;2.28;;;;;;;21.00;68.65;102103.53;6250597;22;20100;-76
2023/08/17 09:20:44;;;;;;;2.97;2.38;;;;;;;21.13;68.44;102101.91;6249784;22;20019;-75
2023/08/17 09:23:22;;;;;;;4.30;2.20;;;;;;;21.35;68.43;102095.19;6250309;22;20076;-75
2023/08/17 09:25:51;;;;;;;4.32;2.50;;;;;;;21.34;67.40;102099.88;6250448;22;20361;-75
2023/08/17 09:28:19;;;;;;;2.20;2.00;;;;;;;21.34;67.31;102097.16;6248183;22;20458;-76
2023/08/17 09:31:04;;;;;;;8.20;2.80;;;;;;;21.35;67.00;102087.81;6250654;22;20079;-76
2023/08/17 09:33:31;;;;;;;5.25;2.50;;;;;;;21.34;67.71;102083.63;6249770;22;20387;-76
2023/08/17 09:35:59;;;;;;;5.18;2.70;;;;;;;21.42;68.05;102092.06;6249908;22;20016;-77
2023/08/17 09:38:29;;;;;;;4.57;2.45;;;;;;;21.53;67.59;102095.56;6247540;22;20106;-75
2023/08/17 09:40:57;;;;;;;2.95;2.30;;;;;;;21.49;66.87;102088.91;6250222;22;20450;-76
2023/08/17 09:43:27;;;;;;;3.92;2.30;;;;;;;21.42;66.54;102087.38;6249481;22;20387;-75
2023/08/17 09:45:54;;;;;;;10.80;2.60;;;;;;;21.40;66.91;102081.69;6248820;22;20438;-76
2023/08/17 09:48:21;;;;;;;5.25;2.60;;;;;;;21.45;67.30;102081.00;6249608;22;20032;-76
2023/08/17 09:50:48;;;;;;;5.25;2.38;;;;;;;21.59;67.47;102082.06;6247632;22;20024;-76
2023/08/17 09:53:16;;;;;;;6.38;2.70;;;;;;;21.63;66.62;102082.56;6250492;22;20024;-77
2023/08/17 09:55:44;;;;;;;4.07;2.40;;;;;;;21.56;66.16;102083.03;6274517;22;20016;-76
2023/08/17 09:58:15;;;;;;;3.88;2.50;;;;;;;21.49;66.65;102078.81;6281048;22;20105;-78
2023/08/17 10:00:47;;;;;;;7.38;3.00;;;;;;;21.46;66.15;102084.44;6253173;22;20086;-76
2023/08/17 10:03:19;;;;;;;3.38;2.47;;;;;;;21.32;66.85;102082.63;6254742;22;20074;-76
2023/08/17 10:05:52;;;;;;;6.20;3.05;;;;;;;21.28;67.34;102072.00;6253286;22;20387;-77
2023/08/17 10:08:22;;;;;;;5.13;2.67;;;;;;;21.39;67.54;102079.47;6280282;22;20020;-77
2023/08/17 10:10:50;;;;;;;3.10;2.40;;;;;;;21.34;67.06;102074.75;6281482;22;20012;-77
2023/08/17 10:13:30;;;;;;;6.40;2.88;;;;;;;21.36;67.51;102064.94;6280645;22;20066;-77
2023/08/17 10:16:05;;;;;;;6.68;3.22;;;;;;;21.34;67.38;102064.66;6280982;22;20020;-77
2023/08/17 10:18:50;;;;;;;4.55;3.20;;;;;;;21.37;67.23;102061.00;6280558;22;20020;-78
2023/08/17 10:21:30;;;;;;;6.03;3.15;;;;;;;21.18;67.55;102063.31;6253875;22;20055;-76
2023/08/17 10:23:57;;;;;;;5.32;2.90;;;;;;;21.18;67.93;102059.88;6253947;22;20411;-77
2023/08/17 10:26:25;;;;;;;5.88;2.80;;;;;;;21.27;67.40;102059.69;6252920;22;20406;-76
2023/08/17 10:28:54;;;;;;;5.50;3.17;;;;;;;21.33;67.28;102057.75;6280826;22;20027;-77
2023/08/17 10:31:21;;;;;;;3.92;2.67;;;;;;;21.44;67.80;102057.84;6280509;22;20058;-77
2023/08/17 10:33:48;;;;;;;6.50;3.55;;;;;;;21.54;66.56;102061.09;6280886;22;20016;-77
2023/08/17 10:36:15;;;;;;;6.70;2.80;;;;;;;21.61;67.41;102058.66;6253983;22;20091;-76
2023/08/17 10:38:42;;;;;;;6.13;2.92;;;;;;;21.70;66.57;102048.84;6280621;22;20074;-77
2023/08/17 10:41:14;;;;;;;3.13;2.70;;;;;;;21.68;66.71;102062.13;6281212;22;20477;-78
2023/08/17 10:43:58;;;;;;;7.18;2.83;;;;;;;21.62;66.54;102062.09;6253408;22;20020;-80
2023/08/17 10:46:35;;;;;;;4.60;2.55;;;;;;;21.52;67.33;102064.28;6252499;22;20022;-79
2023/08/17 10:49:07;;;;;;;4.45;2.65;;;;;;;21.50;66.53;102063.28;6280282;22;20412;-78
2023/08/17 10:51:34;;;;;;;9.82;3.08;;;;;;;21.44;67.45;102057.84;6253422;22;20508;-80
2023/08/17 10:54:03;;;;;;;5.38;2.50;;;;;;;21.63;67.63;102063.59;6280445;22;20442;-79
2023/08/17 10:56:30;;;;;;;7.45;2.97;;;;;;;21.68;67.04;102072.97;6280163;22;20509;-79
2023/08/17 10:59:01;;;;;;;4.65;2.60;;;;;;;21.74;66.32;102065.63;6280752;22;20777;-78
2023/08/17 11:01:35;;;;;;;7.65;3.33;;;;;;;21.71;66.74;102064.63;6279849;22;20073;-75
2023/08/17 11:04:16;;;;;;;4.63;2.95;;;;;;;21.69;66.37;102053.53;6227694;22;20012;-78
2023/08/17 11:06:44;;;;;;;3.27;2.80;;;;;;;21.71;66.90;102056.50;6253469;22;20008;-77
2023/08/17 11:09:12;;;;;;;3.30;2.78;;;;;;;21.74;67.01;102054.78;6280943;22;20095;-77
2023/08/17 11:11:38;;;;;;;3.45;2.50;;;;;;;21.92;67.06;102043.53;6252463;22;20520;-78
2023/08/17 11:14:05;;;;;;;7.22;2.70;;;;;;;22.02;66.34;102052.19;6280979;22;20012;-78
2023/08/17 11:16:32;;;;;;;5.93;3.40;;;;;;;22.00;66.37;102055.38;6279584;22;20016;-77
2023/08/17 11:19:00;;;;;;;4.57;3.25;;;;;;;21.98;66.17;102052.44;6253330;22;20017;-78
2023/08/17 11:21:27;;;;;;;6.28;3.40;;;;;;;22.05;65.84;102051.97;6279929;22;20504;-79
2023/08/17 11:23:55;;;;;;;5.70;3.60;;;;;;;22.02;66.18;102055.66;6281250;22;20012;-81
2023/08/17 11:26:22;;;;;;;7.40;3.50;;;;;;;21.92;65.60;102065.22;6252820;22;20095;-77
2023/08/17 11:28:49;;;;;;;6.10;3.80;;;;;;;21.84;65.84;102048.69;6281008;22;20028;-81